Time;durP1;ratioP1;P1;durP2;ratioP2;P2;SDS_P1;SDS_P2;PMS_P1;PMS_P2;Temp;Humidity;BMP_temperature;BMP_pressure;BME280_temperature;BME280_humidity;BME280_pressure;Samples;Min_cycle;Max_cycle;Signal;HPM_P1;HPM_P2
2022/01/08 00:01:27;;;;;;;5.68;3.13;;;;;;;-0.58;100.00;98698.91;4990254;28;20035;-61
2022/01/08 00:03:53;;;;;;;7.35;4.25;;;;;;;-0.60;100.00;98707.00;4998040;28;20859;-61
2022/01/08 00:06:19;;;;;;;8.98;4.70;;;;;;;-0.76;100.00;98697.47;4989480;28;20031;-60
2022/01/08 00:08:44;;;;;;;8.98;4.95;;;;;;;-0.80;100.00;98696.22;4992316;28;20545;-60
2022/01/08 00:11:13;;;;;;;7.60;3.50;;;;;;;-0.89;100.00;98698.13;4986538;28;20556;-59
2022/01/08 00:13:40;;;;;;;6.30;3.38;;;;;;;-0.86;100.00;98699.56;4998888;28;20037;-61
2022/01/08 00:16:06;;;;;;;6.50;3.47;;;;;;;-0.88;100.00;98698.94;5014540;28;20392;-60
2022/01/08 00:18:31;;;;;;;13.73;7.35;;;;;;;-0.87;100.00;98700.59;4997627;28;20034;-60
2022/01/08 00:20:56;;;;;;;13.57;6.15;;;;;;;-0.90;100.00;98693.03;4997168;28;20046;-60
2022/01/08 00:23:22;;;;;;;13.48;7.13;;;;;;;-0.86;100.00;98696.94;4992934;28;20116;-60
2022/01/08 00:25:47;;;;;;;22.90;10.65;;;;;;;-0.90;100.00;98695.66;4991248;28;20033;-60
2022/01/08 00:28:13;;;;;;;17.02;7.88;;;;;;;-0.91;100.00;98697.47;4994981;28;20038;-60
2022/01/08 00:30:38;;;;;;;14.55;7.47;;;;;;;-0.92;100.00;98702.94;5024240;28;20034;-60
2022/01/08 00:33:04;;;;;;;9.40;4.70;;;;;;;-0.96;100.00;98701.66;4990365;28;20030;-60
2022/01/08 00:35:29;;;;;;;6.63;3.45;;;;;;;-0.80;100.00;98688.34;5007194;28;20073;-60
2022/01/08 00:37:55;;;;;;;8.60;4.78;;;;;;;-0.80;100.00;98696.22;4991216;28;20030;-60
2022/01/08 00:40:21;;;;;;;11.48;5.38;;;;;;;-0.82;100.00;98692.13;5009712;28;20030;-60
2022/01/08 00:42:46;;;;;;;20.73;8.25;;;;;;;-0.75;100.00;98688.59;4999123;28;20519;-60
2022/01/08 00:45:11;;;;;;;18.25;8.18;;;;;;;-0.81;100.00;98697.22;4992450;28;20046;-60
2022/01/08 00:47:37;;;;;;;34.40;14.32;;;;;;;-0.81;100.00;98701.66;4991857;28;20038;-60
2022/01/08 00:50:04;;;;;;;20.17;7.30;;;;;;;-0.68;100.00;98694.75;4995600;28;20209;-60
2022/01/08 00:52:30;;;;;;;6.20;2.83;;;;;;;-0.89;100.00;98698.13;4997967;28;20057;-60
2022/01/08 00:54:55;;;;;;;7.70;3.10;;;;;;;-0.78;100.00;98693.41;4991412;28;20030;-60
2022/01/08 00:57:21;;;;;;;6.43;2.50;;;;;;;-0.90;100.00;98696.50;4989663;28;20033;-60
2022/01/08 00:59:46;;;;;;;11.00;4.50;;;;;;;-0.78;100.00;98696.03;5001205;28;20109;-60
2022/01/08 01:02:11;;;;;;;9.00;4.53;;;;;;;-0.79;100.00;98697.84;4992982;28;20539;-60
2022/01/08 01:04:37;;;;;;;7.90;3.30;;;;;;;-0.83;100.00;98691.31;5001487;28;20040;-60
2022/01/08 01:07:02;;;;;;;8.65;4.13;;;;;;;-0.80;100.00;98695.41;4994024;28;20031;-60
2022/01/08 01:09:28;;;;;;;8.88;4.85;;;;;;;-0.78;100.00;98694.22;4993409;28;20042;-60
2022/01/08 01:11:57;;;;;;;6.13;2.97;;;;;;;-0.96;100.00;98689.31;4996115;28;20038;-58
2022/01/08 01:14:23;;;;;;;4.10;2.13;;;;;;;-0.84;100.00;98694.94;4994570;28;20039;-59
2022/01/08 01:16:48;;;;;;;8.55;4.50;;;;;;;-0.81;100.00;98697.22;4992653;28;20038;-59
2022/01/08 01:19:13;;;;;;;8.40;4.78;;;;;;;-0.79;100.00;98697.03;4993471;28;20037;-59
2022/01/08 01:21:39;;;;;;;7.03;3.22;;;;;;;-0.84;100.00;98688.88;4992167;28;20053;-59
2022/01/08 01:24:11;;;;;;;4.55;2.38;;;;;;;-0.84;100.00;98702.84;4992074;28;20033;-58
2022/01/08 01:26:40;;;;;;;3.53;1.98;;;;;;;-0.89;100.00;98697.31;4994356;28;20030;-59
2022/01/08 01:29:30;;;;;;;12.43;4.65;;;;;;;-0.88;100.00;98689.22;4999314;28;20457;-59
2022/01/08 01:48:20;;;;;;;6.15;3.22;;;;;;;-0.92;100.00;98685.34;4988648;28;20076;-58
2022/01/08 01:50:45;;;;;;;5.28;2.95;;;;;;;-0.70;100.00;98686.25;5000960;28;20092;-59
2022/01/08 01:53:11;;;;;;;10.18;4.00;;;;;;;-0.78;100.00;98690.78;4988530;28;20112;-59
2022/01/08 01:55:36;;;;;;;5.25;2.58;;;;;;;-0.79;100.00;98697.84;5008586;28;20034;-59
2022/01/08 01:58:05;;;;;;;6.10;3.13;;;;;;;-0.59;100.00;98702.56;4994808;28;20042;-59
2022/01/08 02:00:31;;;;;;;8.77;4.15;;;;;;;-0.73;100.00;98712.91;4991064;28;20520;-59
2022/01/08 02:02:56;;;;;;;10.30;4.90;;;;;;;-0.80;100.00;98701.50;5001085;28;20033;-58
2022/01/08 02:05:22;;;;;;;5.55;3.03;;;;;;;-0.75;100.00;98706.19;4992729;28;20363;-59
2022/01/08 02:07:47;;;;;;;5.15;2.67;;;;;;;-0.76;100.00;98713.28;4991296;28;20222;-59
2022/01/08 02:10:13;;;;;;;6.38;4.15;;;;;;;-0.81;100.00;98702.47;4986766;28;20038;-59
2022/01/08 02:12:38;;;;;;;6.25;3.13;;;;;;;-0.77;100.00;98705.56;4993417;28;20031;-59
2022/01/08 02:15:04;;;;;;;6.22;3.70;;;;;;;-0.70;100.00;98709.94;4989789;28;20030;-58
2022/01/08 02:17:29;;;;;;;7.22;3.42;;;;;;;-0.73;100.00;98702.38;4997296;28;20380;-58
2022/01/08 02:19:55;;;;;;;5.53;3.05;;;;;;;-0.78;100.00;98696.84;4985888;28;20030;-59
2022/01/08 02:22:20;;;;;;;13.73;3.78;;;;;;;-0.88;100.00;98693.66;4993425;28;20445;-59
2022/01/08 02:24:46;;;;;;;6.70;3.70;;;;;;;-0.70;100.00;98686.25;4994345;28;20022;-59
2022/01/08 02:27:12;;;;;;;10.32;4.97;;;;;;;-0.83;100.00;98680.78;4992115;28;20110;-59
2022/01/08 02:29:37;;;;;;;6.32;3.83;;;;;;;-0.76;100.00;98686.16;5000289;28;20048;-59
2022/01/08 02:32:06;;;;;;;4.97;2.95;;;;;;;-0.83;100.00;98691.31;4993734;28;20694;-59
2022/01/08 02:34:31;;;;;;;6.25;3.05;;;;;;;-0.81;100.00;98694.59;4993722;28;20156;-59
2022/01/08 02:36:57;;;;;;;6.00;2.90;;;;;;;-0.84;100.00;98691.50;4991702;28;20495;-59
2022/01/08 02:39:23;;;;;;;6.88;2.30;;;;;;;-0.75;100.00;98687.75;4994034;28;20092;-58
2022/01/08 02:41:53;;;;;;;5.45;2.38;;;;;;;-0.59;100.00;98686.78;4988853;28;20660;-58
2022/01/08 02:44:18;;;;;;;7.32;2.33;;;;;;;-0.68;100.00;98689.47;4991425;28;20254;-59
2022/01/08 02:46:44;;;;;;;11.80;4.60;;;;;;;-0.75;100.00;98693.88;4992332;28;20456;-59
2022/01/08 02:49:09;;;;;;;7.05;3.38;;;;;;;-0.68;100.00;98700.00;4993492;28;20027;-58
2022/01/08 02:51:35;;;;;;;6.50;3.22;;;;;;;-0.69;100.00;98698.38;5006473;28;20049;-59
2022/01/08 02:54:02;;;;;;;10.95;4.32;;;;;;;-0.67;100.00;98696.41;4989450;28;20037;-59
2022/01/08 02:56:27;;;;;;;8.52;4.20;;;;;;;-0.53;100.00;98692.09;4992340;28;20046;-59
2022/01/08 02:58:52;;;;;;;7.85;4.13;;;;;;;-0.63;100.00;98688.13;4990796;28;20025;-59
2022/01/08 03:01:18;;;;;;;8.27;3.88;;;;;;;-0.58;100.00;98698.91;5020326;28;20412;-58
2022/01/08 03:03:43;;;;;;;8.18;4.22;;;;;;;-0.72;100.00;98703.22;4989940;28;20044;-59
2022/01/08 03:06:09;;;;;;;9.88;4.82;;;;;;;-0.68;100.00;98715.00;4985758;28;20104;-59
2022/01/08 03:08:34;;;;;;;12.05;5.43;;;;;;;-0.70;100.00;98707.28;4999030;28;20042;-58
2022/01/08 03:10:59;;;;;;;9.35;4.05;;;;;;;-0.70;100.00;98704.66;4993595;28;20030;-60
2022/01/08 03:13:25;;;;;;;12.55;5.93;;;;;;;-0.75;100.00;98707.03;5002971;28;20045;-60
2022/01/08 03:15:50;;;;;;;8.55;4.25;;;;;;;-0.69;100.00;98710.75;4996237;28;20435;-60
2022/01/08 03:18:16;;;;;;;5.95;2.95;;;;;;;-0.67;100.00;98711.38;4992133;28;20034;-61
2022/01/08 03:21:01;;;;;;;12.10;3.92;;;;;;;-0.44;100.00;98711.25;4994505;28;20037;-60
2022/01/08 03:23:35;;;;;;;5.88;3.15;;;;;;;-0.67;100.00;98706.13;4991784;28;20046;-60
2022/01/08 03:26:00;;;;;;;7.43;3.47;;;;;;;-0.77;100.00;98709.03;4991973;28;20034;-60
2022/01/08 03:28:26;;;;;;;8.32;3.92;;;;;;;-0.84;100.00;98702.84;4993818;28;20037;-60
2022/01/08 03:30:51;;;;;;;12.68;4.45;;;;;;;-0.72;100.00;98714.56;5020629;28;20037;-60
2022/01/08 03:33:16;;;;;;;9.35;3.83;;;;;;;-0.74;100.00;98724.44;4992213;28;20544;-60
2022/01/08 03:35:42;;;;;;;12.93;4.55;;;;;;;-0.71;100.00;98729.34;4994099;28;20084;-60
2022/01/08 03:38:07;;;;;;;11.40;4.50;;;;;;;-0.57;100.00;98730.34;4990994;28;20095;-60
2022/01/08 03:40:33;;;;;;;8.25;4.00;;;;;;;-0.75;100.00;98730.72;4991565;28;20089;-60
2022/01/08 03:42:58;;;;;;;8.57;4.10;;;;;;;-0.71;100.00;98737.22;4987174;28;20081;-60
2022/01/08 03:45:23;;;;;;;7.72;4.07;;;;;;;-0.70;100.00;98757.31;4990912;28;20054;-60
2022/01/08 03:50:14;;;;;;;6.93;3.70;;;;;;;-0.66;100.00;98763.00;4985736;28;20034;-60
2022/01/08 03:52:40;;;;;;;8.88;4.38;;;;;;;-0.67;100.00;98766.66;4998999;28;20041;-60
2022/01/08 03:55:05;;;;;;;9.45;4.18;;;;;;;-0.71;100.00;98770.63;4992599;28;20030;-60
2022/01/08 03:57:31;;;;;;;9.63;4.47;;;;;;;-0.67;100.00;98772.72;4997636;28;20538;-60
2022/01/08 03:59:56;;;;;;;8.00;3.80;;;;;;;-0.66;100.00;98771.72;4998381;28;20052;-60
2022/01/08 04:02:22;;;;;;;10.10;4.20;;;;;;;-0.60;100.00;98774.63;4989725;28;20818;-59
2022/01/08 04:04:48;;;;;;;12.30;4.15;;;;;;;-0.59;100.00;98784.16;4988283;28;20030;-60
2022/01/08 04:07:14;;;;;;;9.63;4.80;;;;;;;-0.61;100.00;98794.06;5019962;28;20043;-60
2022/01/08 04:09:39;;;;;;;10.93;4.82;;;;;;;-0.56;100.00;98789.06;4992508;28;20085;-59
2022/01/08 04:12:06;;;;;;;10.48;4.55;;;;;;;-0.51;100.00;98800.69;4991995;28;20129;-60
2022/01/08 04:14:42;;;;;;;12.00;4.75;;;;;;;-0.47;100.00;98799.31;4991068;28;20421;-60
2022/01/08 04:17:08;;;;;;;12.07;5.38;;;;;;;-0.49;100.00;98792.59;5001193;28;20030;-59
2022/01/08 04:19:33;;;;;;;11.15;5.30;;;;;;;-0.55;100.00;98794.16;4992554;28;20058;-60
2022/01/08 04:22:11;;;;;;;11.27;5.90;;;;;;;-0.50;100.00;98807.59;4987180;28;20552;-60
2022/01/08 04:24:36;;;;;;;15.00;5.72;;;;;;;-0.32;100.00;98817.75;4994529;28;20045;-60
2022/01/08 04:27:02;;;;;;;15.13;6.80;;;;;;;-0.42;100.00;98814.59;4992574;28;20046;-59
2022/01/08 04:29:27;;;;;;;11.05;6.65;;;;;;;-0.47;100.00;98822.22;4995212;28;20144;-60
2022/01/08 04:31:53;;;;;;;12.77;5.65;;;;;;;-0.40;100.00;98823.13;4985885;28;20041;-60
2022/01/08 04:34:18;;;;;;;17.30;7.20;;;;;;;-0.46;100.00;98823.84;4987049;28;20405;-60
2022/01/08 04:36:44;;;;;;;14.75;6.70;;;;;;;-0.41;100.00;98836.47;4989781;28;20030;-60
2022/01/08 04:39:09;;;;;;;12.35;6.80;;;;;;;-0.58;100.00;98835.81;4991441;28;20031;-60
2022/01/08 04:41:34;;;;;;;18.67;6.78;;;;;;;-0.61;100.00;98844.06;4988758;28;20106;-60
2022/01/08 04:44:00;;;;;;;10.55;6.38;;;;;;;-0.70;100.00;98845.94;4990570;28;20030;-60
2022/01/08 04:46:25;;;;;;;23.67;7.53;;;;;;;-0.64;100.00;98836.53;4992855;28;20049;-60
2022/01/08 04:48:51;;;;;;;16.85;6.20;;;;;;;-0.65;100.00;98843.59;4996685;28;20469;-60
2022/01/08 04:51:16;;;;;;;17.95;7.60;;;;;;;-0.74;100.00;98848.13;4989920;28;20104;-60
2022/01/08 04:53:42;;;;;;;18.13;8.10;;;;;;;-0.80;100.00;98843.59;4992491;28;20033;-60
2022/01/08 04:56:07;;;;;;;21.38;6.82;;;;;;;-0.82;100.00;98850.00;4993784;28;20037;-60
2022/01/08 04:58:33;;;;;;;18.90;7.40;;;;;;;-0.92;100.00;98850.28;4987873;28;20393;-60
2022/01/08 05:00:58;;;;;;;19.52;6.78;;;;;;;-0.88;100.00;98856.81;5026464;28;20846;-60
2022/01/08 05:03:23;;;;;;;19.00;6.55;;;;;;;-0.98;100.00;98856.22;4995232;28;20389;-59
2022/01/08 05:05:49;;;;;;;18.13;7.57;;;;;;;-1.06;100.00;98862.38;4997701;28;20038;-59
2022/01/08 05:08:14;;;;;;;24.50;7.47;;;;;;;-1.00;100.00;98866.13;4994735;28;20089;-60
2022/01/08 05:10:40;;;;;;;17.98;6.65;;;;;;;-1.10;100.00;98869.81;4992580;28;20034;-60
2022/01/08 05:13:06;;;;;;;21.25;6.78;;;;;;;-1.22;100.00;98873.84;5002451;28;20049;-60
2022/01/08 05:15:32;;;;;;;16.95;6.63;;;;;;;-1.28;100.00;98871.09;4996913;28;20034;-60
2022/01/08 05:17:57;;;;;;;17.70;6.80;;;;;;;-1.28;100.00;98871.91;4995418;28;20105;-60
2022/01/08 05:20:24;;;;;;;13.00;6.13;;;;;;;-1.27;100.00;98872.72;4988569;28;20053;-59
2022/01/08 05:22:52;;;;;;;15.02;5.75;;;;;;;-1.20;100.00;98873.66;4998053;28;20080;-60
2022/01/08 05:25:19;;;;;;;15.05;5.60;;;;;;;-1.15;100.00;98874.78;5019603;28;20385;-60
2022/01/08 05:27:45;;;;;;;16.42;5.90;;;;;;;-1.05;100.00;98876.34;4989977;28;20540;-60
2022/01/08 05:30:11;;;;;;;16.33;5.68;;;;;;;-1.06;100.00;98879.97;4988138;28;20032;-59
2022/01/08 05:32:37;;;;;;;12.70;5.10;;;;;;;-1.08;100.00;98888.84;4995631;28;20036;-60
2022/01/08 05:35:02;;;;;;;12.75;5.03;;;;;;;-0.98;100.00;98885.16;5000689;28;20033;-60
2022/01/08 05:37:28;;;;;;;11.45;5.30;;;;;;;-1.01;100.00;98890.78;4994211;28;20034;-59
2022/01/08 05:39:53;;;;;;;14.32;5.25;;;;;;;-1.01;100.00;98890.78;4997108;28;20395;-60
2022/01/08 05:42:18;;;;;;;12.65;5.47;;;;;;;-0.97;100.00;98889.47;4993323;28;20038;-60
2022/01/08 05:44:44;;;;;;;12.45;5.35;;;;;;;-1.09;100.00;98889.03;4993334;28;20034;-60
2022/01/08 05:47:09;;;;;;;14.45;5.63;;;;;;;-1.06;100.00;98890.50;4990974;28;20586;-59
2022/01/08 05:49:35;;;;;;;14.48;5.70;;;;;;;-1.13;100.00;98896.44;4990861;28;20041;-60
2022/01/08 05:52:00;;;;;;;24.67;7.97;;;;;;;-1.24;100.00;98893.44;4996589;28;20476;-60
2022/01/08 05:54:26;;;;;;;22.83;8.52;;;;;;;-1.24;100.00;98894.25;4992793;28;20041;-59
2022/01/08 05:56:51;;;;;;;19.48;7.38;;;;;;;-1.21;100.00;98893.88;4998970;28;20037;-59
2022/01/08 05:59:17;;;;;;;15.50;7.20;;;;;;;-1.10;100.00;98903.16;4996963;28;20031;-59
2022/01/08 06:01:42;;;;;;;15.43;5.88;;;;;;;-1.13;100.00;98900.91;4994030;28;20056;-59
2022/01/08 06:04:08;;;;;;;16.02;5.43;;;;;;;-1.19;100.00;98901.63;4998283;28;20378;-59
2022/01/08 06:06:35;;;;;;;14.10;5.38;;;;;;;-1.12;100.00;98905.19;4997178;28;20129;-60
2022/01/08 06:09:01;;;;;;;9.32;5.13;;;;;;;-1.25;100.00;98908.38;4988243;28;20042;-60
2022/01/08 06:11:26;;;;;;;25.65;11.20;;;;;;;-1.41;100.00;98914.56;4992654;28;20045;-59
2022/01/08 06:13:52;;;;;;;14.05;6.95;;;;;;;-1.36;100.00;98919.28;4996837;28;20046;-60
2022/01/08 06:16:17;;;;;;;21.48;7.53;;;;;;;-1.47;100.00;98919.66;4998234;28;20038;-60
2022/01/08 06:18:42;;;;;;;18.75;8.80;;;;;;;-1.52;100.00;98928.91;4990466;28;20440;-60
2022/01/08 06:21:08;;;;;;;19.42;9.15;;;;;;;-1.44;100.00;98924.59;4995071;28;20057;-60
2022/01/08 06:23:33;;;;;;;15.40;5.57;;;;;;;-1.47;100.00;98924.94;4991397;28;20567;-59
2022/01/08 06:25:59;;;;;;;14.45;6.97;;;;;;;-1.41;100.00;98924.25;4991332;28;20029;-59
2022/01/08 06:28:24;;;;;;;18.35;7.75;;;;;;;-1.41;100.00;98929.50;4997904;28;20034;-59
2022/01/08 06:30:50;;;;;;;26.75;12.07;;;;;;;-1.50;100.00;98931.34;4989209;28;20076;-59
2022/01/08 06:33:16;;;;;;;15.10;8.07;;;;;;;-1.53;100.00;98939.59;4989160;28;20038;-60
2022/01/08 06:35:41;;;;;;;25.88;7.35;;;;;;;-1.50;100.00;98939.22;4989913;28;20034;-59
2022/01/08 06:38:07;;;;;;;26.00;8.85;;;;;;;-1.54;100.00;98938.78;4991538;28;20032;-59
2022/01/08 06:40:32;;;;;;;19.17;7.63;;;;;;;-1.62;100.00;98932.72;4989424;28;20077;-62
2022/01/08 06:42:58;;;;;;;18.35;6.93;;;;;;;-1.57;100.00;98941.75;4987359;28;20586;-59
2022/01/08 06:45:23;;;;;;;27.58;9.27;;;;;;;-1.53;100.00;98950.91;4989547;28;20396;-60
2022/01/08 06:47:48;;;;;;;16.98;7.18;;;;;;;-1.44;100.00;98958.78;4994072;28;20109;-59
2022/01/08 06:50:14;;;;;;;80.45;35.20;;;;;;;-1.32;100.00;98960.84;4991186;28;20369;-59
2022/01/08 06:52:39;;;;;;;22.67;10.02;;;;;;;-1.23;99.49;98966.88;4989201;28;20034;-59
2022/01/08 06:55:06;;;;;;;26.40;8.00;;;;;;;-1.13;100.00;98974.53;5004347;28;20030;-59
2022/01/08 06:57:31;;;;;;;23.38;10.02;;;;;;;-1.24;99.64;98978.38;4996519;28;20031;-59
2022/01/08 06:59:57;;;;;;;22.55;9.38;;;;;;;-1.28;100.00;98981.53;4989456;28;20041;-59
2022/01/08 07:02:22;;;;;;;21.33;8.10;;;;;;;-1.27;100.00;98993.69;4989242;28;20037;-60
2022/01/08 07:04:48;;;;;;;23.08;9.68;;;;;;;-1.28;99.68;98995.50;4988723;28;20026;-59
2022/01/08 07:07:13;;;;;;;21.95;10.35;;;;;;;-1.16;99.12;99004.63;4993058;28;20045;-60
2022/01/08 07:09:39;;;;;;;22.13;7.90;;;;;;;-1.12;98.66;99008.56;4986579;28;20519;-59
2022/01/08 07:12:04;;;;;;;23.77;7.47;;;;;;;-1.02;99.29;99002.25;4988792;28;20026;-60
2022/01/08 07:14:30;;;;;;;34.42;19.60;;;;;;;-1.01;98.34;99006.53;4992027;28;20057;-59
2022/01/08 07:16:55;;;;;;;21.77;9.13;;;;;;;-0.96;98.95;99014.75;4988665;28;20350;-59
2022/01/08 07:19:21;;;;;;;23.55;9.65;;;;;;;-0.91;99.40;99015.03;4988422;28;20038;-60
2022/01/08 07:21:46;;;;;;;14.93;7.28;;;;;;;-0.82;98.80;99018.41;4991394;28;20034;-59
2022/01/08 07:24:11;;;;;;;19.55;6.68;;;;;;;-0.86;98.20;99017.97;4985145;28;20502;-59
2022/01/08 07:26:37;;;;;;;17.35;7.00;;;;;;;-0.93;98.62;99024.91;4988799;28;20030;-59
2022/01/08 07:29:02;;;;;;;21.73;6.57;;;;;;;-0.99;98.41;99017.72;4989141;28;20465;-59
2022/01/08 07:31:28;;;;;;;16.60;7.32;;;;;;;-1.06;98.73;99025.47;4995540;28;20034;-59
2022/01/08 07:33:53;;;;;;;28.75;6.68;;;;;;;-1.10;98.54;99032.91;4990293;28;20033;-59
2022/01/08 07:36:19;;;;;;;17.52;7.72;;;;;;;-0.97;97.85;99026.25;4994950;28;20088;-60
2022/01/08 07:38:45;;;;;;;18.05;7.15;;;;;;;-0.91;97.88;99022.94;4994962;28;20466;-59
2022/01/08 07:41:11;;;;;;;19.25;6.78;;;;;;;-1.00;96.99;99024.81;4990624;28;20030;-59
2022/01/08 07:43:36;;;;;;;18.20;7.05;;;;;;;-1.10;97.49;99042.56;4990835;28;20395;-59
2022/01/08 07:46:01;;;;;;;14.07;6.80;;;;;;;-1.34;97.05;99039.06;4985699;28;20058;-59
2022/01/08 07:48:27;;;;;;;15.38;6.38;;;;;;;-1.42;97.19;99038.28;4991167;28;20033;-59
2022/01/08 07:50:54;;;;;;;15.30;6.97;;;;;;;-1.41;97.85;99035.50;4990159;28;20060;-59
2022/01/08 07:53:19;;;;;;;13.60;4.68;;;;;;;-1.47;97.51;99038.81;4985723;28;20329;-59
2022/01/08 07:55:45;;;;;;;22.27;6.70;;;;;;;-1.39;97.66;99043.22;4993160;28;20408;-59
2022/01/08 07:58:10;;;;;;;13.15;5.90;;;;;;;-1.33;97.27;99047.78;4990910;28;20318;-59
2022/01/08 08:00:35;;;;;;;15.13;6.35;;;;;;;-1.42;97.59;99049.63;4997018;28;20389;-59
2022/01/08 08:03:01;;;;;;;15.02;6.32;;;;;;;-1.50;97.40;99060.16;4989665;28;20037;-59
2022/01/08 08:05:26;;;;;;;18.73;5.53;;;;;;;-1.46;97.59;99058.84;4986072;28;20266;-59
2022/01/08 08:07:52;;;;;;;12.57;6.05;;;;;;;-1.45;97.23;99059.66;4988997;28;20041;-60
2022/01/08 08:10:17;;;;;;;16.02;6.00;;;;;;;-1.47;97.05;99059.00;4995874;28;20049;-60
2022/01/08 08:12:43;;;;;;;17.95;5.80;;;;;;;-1.39;96.47;99059.81;4997695;28;20041;-60
2022/01/08 08:15:09;;;;;;;11.70;5.03;;;;;;;-1.48;96.78;99062.63;4993630;28;20121;-59
2022/01/08 08:17:34;;;;;;;7.43;3.97;;;;;;;-1.69;95.33;99057.94;4986831;28;20038;-60
2022/01/08 08:20:01;;;;;;;6.60;4.07;;;;;;;-1.87;96.23;99061.56;4992010;28;20038;-60
2022/01/08 08:22:26;;;;;;;19.13;6.20;;;;;;;-1.83;96.70;99057.59;5005076;28;20132;-60
2022/01/08 08:24:51;;;;;;;20.00;5.32;;;;;;;-1.88;96.90;99054.66;4994528;28;20030;-59
2022/01/08 08:27:17;;;;;;;9.05;5.72;;;;;;;-1.88;96.60;99056.47;4983806;28;20034;-59
2022/01/08 08:29:42;;;;;;;10.80;4.90;;;;;;;-1.84;97.05;99055.97;4996904;28;20477;-59
2022/01/08 08:32:08;;;;;;;9.23;5.03;;;;;;;-1.87;97.29;99056.31;4994384;28;20031;-59
2022/01/08 08:34:34;;;;;;;8.13;5.55;;;;;;;-1.69;96.45;99048.22;4990303;28;20108;-59
2022/01/08 08:36:59;;;;;;;11.05;5.38;;;;;;;-1.64;96.42;99056.44;4993045;28;20057;-59
2022/01/08 08:39:25;;;;;;;21.80;7.18;;;;;;;-1.71;96.89;99055.47;5027896;28;20045;-59
2022/01/08 08:41:51;;;;;;;18.02;6.13;;;;;;;-1.35;95.97;99065.53;4993863;28;20365;-59
2022/01/08 08:44:16;;;;;;;13.48;5.80;;;;;;;-1.39;95.46;99065.06;4998287;28;20045;-59
2022/01/08 08:46:42;;;;;;;13.43;6.18;;;;;;;-1.28;94.90;99061.25;4992737;28;20045;-59
2022/01/08 08:49:07;;;;;;;11.95;5.80;;;;;;;-1.16;95.70;99053.81;4993208;28;20041;-59
2022/01/08 08:51:33;;;;;;;12.57;6.88;;;;;;;-1.33;94.61;99048.59;4993500;28;20623;-59
2022/01/08 08:53:58;;;;;;;17.42;6.88;;;;;;;-1.10;94.79;99055.72;4999216;28;20034;-59
2022/01/08 08:56:23;;;;;;;11.77;5.80;;;;;;;-0.79;94.92;99060.19;4993857;28;20533;-59
2022/01/08 08:58:49;;;;;;;10.85;5.82;;;;;;;-0.70;93.40;99054.72;4992958;28;20026;-58
2022/01/08 09:01:14;;;;;;;19.42;6.75;;;;;;;-0.45;92.96;99065.06;5018838;28;20121;-59
2022/01/08 09:03:40;;;;;;;13.98;6.57;;;;;;;0.02;91.21;99057.94;4997039;28;20476;-59
2022/01/08 09:06:05;;;;;;;15.00;6.50;;;;;;;0.15;89.25;99061.63;4993507;28;20033;-59
2022/01/08 09:08:31;;;;;;;18.25;6.25;;;;;;;0.18;88.62;99057.81;4989648;28;20029;-59
2022/01/08 09:10:56;;;;;;;17.63;6.03;;;;;;;0.92;85.46;99059.63;4994890;28;20029;-59
2022/01/08 09:13:24;;;;;;;12.35;6.00;;;;;;;1.24;84.18;99063.66;4997691;28;20041;-60
2022/01/08 09:15:50;;;;;;;14.65;5.70;;;;;;;1.84;81.58;99065.06;4998651;28;20507;-59
2022/01/08 09:18:16;;;;;;;16.83;6.25;;;;;;;1.19;83.53;99060.75;4989312;28;20027;-59
2022/01/08 09:20:42;;;;;;;9.68;5.43;;;;;;;1.04;83.95;99063.44;4990925;28;20031;-59
2022/01/08 09:23:07;;;;;;;11.15;5.65;;;;;;;1.85;82.64;99064.09;4990067;28;20116;-59
2022/01/08 09:25:33;;;;;;;16.30;6.47;;;;;;;1.90;80.69;99074.91;4992974;28;20027;-59
2022/01/08 09:27:58;;;;;;;14.48;5.90;;;;;;;2.58;78.61;99071.72;4999619;28;20026;-59
2022/01/08 09:30:24;;;;;;;15.27;6.38;;;;;;;1.97;81.33;99074.94;4996905;28;20030;-59
2022/01/08 09:32:50;;;;;;;11.95;6.20;;;;;;;1.68;83.91;99071.44;4989495;28;20057;-59
2022/01/08 09:35:15;;;;;;;17.58;7.13;;;;;;;0.91;86.74;99077.28;5012945;28;20037;-59
2022/01/08 09:37:41;;;;;;;19.77;6.45;;;;;;;0.78;88.16;99080.56;4993319;28;20427;-59
2022/01/08 09:40:10;;;;;;;12.57;6.32;;;;;;;0.53;88.92;99082.66;4994488;28;20041;-58
2022/01/08 09:42:35;;;;;;;14.57;6.70;;;;;;;0.49;89.80;99076.09;4995005;28;20111;-59
2022/01/08 09:45:01;;;;;;;14.70;6.72;;;;;;;0.42;90.57;99076.03;4995703;28;20452;-58
2022/01/08 09:47:27;;;;;;;14.88;7.05;;;;;;;0.65;89.72;99075.13;4991483;28;20050;-58
2022/01/08 09:49:52;;;;;;;15.02;6.13;;;;;;;0.82;89.58;99065.19;5020875;28;20097;-58
2022/01/08 09:52:17;;;;;;;18.58;7.32;;;;;;;0.64;89.53;99069.00;4990472;28;20042;-58
2022/01/08 09:54:43;;;;;;;14.07;7.28;;;;;;;0.35;90.88;99061.09;4992928;28;20595;-58
2022/01/08 09:57:08;;;;;;;20.25;7.20;;;;;;;0.44;90.75;99073.19;4997690;28;20030;-58
2022/01/08 09:59:34;;;;;;;25.15;7.85;;;;;;;0.53;90.69;99074.75;4992749;28;20038;-59
2022/01/08 10:02:00;;;;;;;13.98;6.85;;;;;;;-0.23;93.08;99061.59;4997053;28;20029;-58
2022/01/08 10:04:26;;;;;;;17.88;7.53;;;;;;;0.01;94.04;99061.59;4994223;28;20030;-58
2022/01/08 10:06:52;;;;;;;12.18;6.00;;;;;;;0.05;93.94;99052.31;4998011;28;20060;-58
2022/01/08 10:09:18;;;;;;;20.70;7.85;;;;;;;0.19;94.25;99049.72;5017156;28;20038;-60
2022/01/08 10:11:50;;;;;;;20.90;7.65;;;;;;;0.79;92.41;99036.53;4984799;28;20042;-60
2022/01/08 10:14:27;;;;;;;15.27;6.25;;;;;;;0.69;92.31;99039.44;4996436;28;20718;-60
2022/01/08 10:19:37;;;;;;;20.90;8.48;;;;;;;0.52;93.42;99027.47;4990214;28;20112;-60
2022/01/08 10:22:03;;;;;;;19.42;7.00;;;;;;;0.72;92.33;99033.00;4991239;28;20034;-61
2022/01/08 10:24:28;;;;;;;20.27;8.77;;;;;;;0.98;91.58;99025.41;4992775;28;20052;-60
2022/01/08 10:27:04;;;;;;;19.92;8.57;;;;;;;0.82;91.65;99015.06;5008346;28;20445;-59
2022/01/08 10:29:30;;;;;;;18.15;7.70;;;;;;;1.01;91.28;99009.19;4993918;28;20039;-59
2022/01/08 10:31:55;;;;;;;19.33;7.47;;;;;;;0.94;91.44;99010.94;4999025;28;20049;-58
2022/01/08 10:34:25;;;;;;;20.65;7.43;;;;;;;0.88;91.82;99009.06;5028208;28;20108;-59
2022/01/08 10:37:04;;;;;;;15.65;7.32;;;;;;;0.89;91.29;99005.41;5009808;28;20064;-58
2022/01/08 10:39:34;;;;;;;19.20;8.05;;;;;;;0.82;91.84;99007.13;4992138;28;20376;-59
2022/01/08 10:42:02;;;;;;;15.10;7.03;;;;;;;1.00;91.76;98996.16;4992838;28;20022;-59
2022/01/08 10:44:31;;;;;;;18.73;7.28;;;;;;;1.04;91.04;98986.88;4988944;28;20030;-59
2022/01/08 10:46:57;;;;;;;20.20;8.98;;;;;;;1.06;91.56;98988.34;4996549;28;20119;-58
2022/01/08 10:49:45;;;;;;;18.23;6.35;;;;;;;1.15;90.67;98991.69;5013413;28;20435;-61
2022/01/08 10:52:13;;;;;;;19.92;7.95;;;;;;;0.97;91.09;98976.25;4988946;28;20069;-61
2022/01/08 10:54:42;;;;;;;14.20;6.65;;;;;;;0.99;91.39;98971.59;4994320;28;20543;-58
2022/01/08 10:57:11;;;;;;;15.55;7.53;;;;;;;1.14;90.45;98963.63;5002209;28;20050;-61
2022/01/08 10:59:37;;;;;;;17.25;8.25;;;;;;;1.20;90.30;98960.25;4995292;28;20075;-60
2022/01/08 11:02:06;;;;;;;11.55;6.03;;;;;;;1.20;89.84;98960.25;4990725;28;20037;-60
2022/01/08 11:04:43;;;;;;;10.35;4.50;;;;;;;0.90;90.58;98954.28;5009307;28;20031;-59
2022/01/08 11:07:09;;;;;;;19.90;8.45;;;;;;;1.07;90.27;98950.41;4994555;28;20057;-60
2022/01/08 11:09:36;;;;;;;16.60;6.57;;;;;;;0.94;90.43;98942.31;4995954;28;20580;-60
2022/01/08 11:12:02;;;;;;;11.88;6.35;;;;;;;1.14;90.71;98937.25;4996560;28;20088;-60
2022/01/08 11:17:18;;;;;;;14.00;6.55;;;;;;;1.21;89.58;98926.75;4990654;28;20041;-60
2022/01/08 11:19:45;;;;;;;;;;;;;;;1.35;89.53;98928.50;4992643;28;20450;-60
2022/01/08 11:22:12;;;;;;;12.85;5.80;;;;;;;1.21;88.97;98924.13;4992419;28;19921;-60
2022/01/08 11:24:59;;;;;;;25.73;7.07;;;;;;;1.18;88.93;98921.84;4987403;28;20527;-60
2022/01/08 11:27:28;;;;;;;17.05;6.00;;;;;;;1.54;87.70;98920.94;4996816;28;20041;-61
2022/01/08 11:30:03;;;;;;;12.07;5.38;;;;;;;1.17;88.56;98915.75;4988502;28;20121;-61
2022/01/08 11:32:28;;;;;;;13.60;4.88;;;;;;;0.80;90.02;98916.78;5004093;28;20068;-60
2022/01/08 11:34:54;;;;;;;13.48;5.32;;;;;;;1.14;89.60;98920.59;4992417;28;20704;-61
2022/01/08 11:37:26;;;;;;;13.75;5.53;;;;;;;1.02;89.92;98923.75;4983705;28;20183;-60
2022/01/08 11:39:52;;;;;;;12.30;5.97;;;;;;;1.06;89.85;98930.25;4984062;28;20023;-60
2022/01/08 11:42:21;;;;;;;15.63;5.43;;;;;;;1.07;90.02;98918.72;4999754;28;20551;-60
2022/01/08 11:44:47;;;;;;;14.30;6.25;;;;;;;1.29;89.97;98913.41;4986207;28;20862;-59